createdAt,value
2019-04-10T00:00:32.540Z,22.10
2019-04-10T00:03:02.102Z,21.00
2019-04-10T00:05:29.416Z,20.13
2019-04-10T00:07:57.584Z,20.37
2019-04-10T00:10:25.064Z,18.73
2019-04-10T00:12:52.342Z,19.87
2019-04-10T00:15:19.787Z,18.30
2019-04-10T00:17:47.235Z,19.40
2019-04-10T00:20:14.536Z,19.93
2019-04-10T00:22:42.353Z,23.47
2019-04-10T00:25:10.706Z,19.50
2019-04-10T00:27:38.932Z,18.90
2019-04-10T00:30:06.972Z,21.30
2019-04-10T00:32:34.373Z,18.80
2019-04-10T00:35:02.546Z,19.47
2019-04-10T00:37:31.603Z,20.37
2019-04-10T00:39:59.217Z,18.63
2019-04-10T00:42:27.431Z,20.57
2019-04-10T00:44:54.906Z,19.03
2019-04-10T00:47:23.197Z,22.10
2019-04-10T00:49:50.707Z,20.13
2019-04-10T00:52:18.062Z,19.27
2019-04-10T00:54:45.376Z,19.47
2019-04-10T00:57:12.882Z,17.57
2019-04-10T00:59:40.361Z,19.87
2019-04-10T01:02:08.051Z,18.53
2019-04-10T01:04:36.151Z,19.23
2019-04-10T01:07:04.324Z,18.17
2019-04-10T01:09:33.243Z,17.90
2019-04-10T01:12:00.992Z,20.63
2019-04-10T01:14:28.344Z,18.77
2019-04-10T01:16:55.799Z,20.20
2019-04-10T01:19:23.897Z,19.53
2019-04-10T01:21:51.272Z,21.63
2019-04-10T01:24:19.569Z,21.70
2019-04-10T01:26:47.576Z,22.80
2019-04-10T01:29:15.501Z,24.97
2019-04-10T01:31:43.535Z,23.50
2019-04-10T01:34:11.507Z,22.67
2019-04-10T01:36:39.453Z,22.07
2019-04-10T01:39:08.758Z,24.43
2019-04-10T01:41:36.302Z,22.50
2019-04-10T01:44:03.782Z,21.70
2019-04-10T01:46:33.624Z,23.10
2019-04-10T01:49:00.179Z,25.03
2019-04-10T01:51:27.574Z,23.07
2019-04-10T01:53:54.951Z,25.10
2019-04-10T01:56:31.170Z,22.53
2019-04-10T01:58:51.709Z,25.00
2019-04-10T02:01:24.197Z,25.23
2019-04-10T02:03:52.049Z,25.23
2019-04-10T02:06:21.035Z,24.27
2019-04-10T02:08:48.529Z,23.70
2019-04-10T02:11:16.178Z,23.30
2019-04-10T02:13:43.549Z,22.70
2019-04-10T02:16:10.920Z,24.47
2019-04-10T02:18:38.198Z,24.33
2019-04-10T02:21:05.496Z,24.73
2019-04-10T02:23:32.826Z,23.87
2019-04-10T02:26:00.989Z,22.90
2019-04-10T02:28:29.145Z,24.00
2019-04-10T02:30:56.808Z,24.80
2019-04-10T02:33:25.427Z,23.93
2019-04-10T02:35:57.150Z,25.83
2019-04-10T02:38:38.930Z,24.17
2019-04-10T02:40:55.326Z,24.00
2019-04-10T02:43:23.272Z,24.00
2019-04-10T02:45:51.183Z,23.73
2019-04-10T02:48:19.414Z,22.83
2019-04-10T02:50:46.949Z,23.13
2019-04-10T02:53:15.296Z,22.00
2019-04-10T02:55:43.234Z,23.07
2019-04-10T02:58:10.656Z,21.20
2019-04-10T03:00:38.013Z,23.37
2019-04-10T03:03:05.716Z,27.30
2019-04-10T03:05:34.485Z,25.10
2019-04-10T03:08:02.119Z,22.80
2019-04-10T03:10:40.567Z,25.37
2019-04-10T03:12:59.306Z,24.57
2019-04-10T03:15:29.540Z,26.43
2019-04-10T03:17:57.403Z,24.17
2019-04-10T03:20:25.100Z,26.27
2019-04-10T03:22:53.358Z,24.40
2019-04-10T03:25:21.237Z,26.77
2019-04-10T03:27:48.653Z,25.53
2019-04-10T03:30:18.101Z,24.53
2019-04-10T03:32:51.707Z,23.60
2019-04-10T03:35:26.981Z,23.53
2019-04-10T03:37:54.343Z,25.77
2019-04-10T03:40:21.698Z,24.20
2019-04-10T03:42:49.610Z,24.77
2019-04-10T03:45:16.976Z,24.50
2019-04-10T03:47:44.257Z,25.67
2019-04-10T03:50:11.810Z,25.67
2019-04-10T03:52:39.180Z,22.77
2019-04-10T03:55:06.574Z,24.83
2019-04-10T03:57:34.391Z,24.37
2019-04-10T04:00:01.848Z,24.50
2019-04-10T04:02:29.517Z,25.87
2019-04-10T04:04:57.863Z,26.50
2019-04-10T04:07:26.939Z,27.80
2019-04-10T04:09:54.433Z,27.53
2019-04-10T04:12:22.351Z,29.80
2019-04-10T04:14:49.721Z,30.03
2019-04-10T04:17:16.992Z,30.67
2019-04-10T04:19:44.308Z,29.90
2019-04-10T04:22:12.526Z,28.67
2019-04-10T04:24:40.067Z,29.30
2019-04-10T04:27:07.421Z,31.90
2019-04-10T04:29:34.700Z,37.60
2019-04-10T04:32:01.972Z,31.70
2019-04-10T04:34:29.367Z,33.30
2019-04-10T04:36:56.665Z,30.33
2019-04-10T04:39:26.926Z,31.53
2019-04-10T04:41:53.201Z,28.93
2019-04-10T04:44:20.603Z,36.40
2019-04-10T04:46:48.331Z,47.40
2019-04-10T04:49:15.828Z,60.93
2019-04-10T04:51:43.774Z,45.17
2019-04-10T04:54:11.173Z,46.07
2019-04-10T04:56:38.541Z,38.47
2019-04-10T04:59:05.990Z,32.97
2019-04-10T05:01:33.378Z,37.90
2019-04-10T05:04:00.838Z,34.47
2019-04-10T05:06:28.121Z,32.93
2019-04-10T05:08:55.399Z,44.87
2019-04-10T05:11:22.725Z,40.93
2019-04-10T05:13:50.904Z,33.77
2019-04-10T05:16:18.699Z,30.83
2019-04-10T05:18:46.085Z,32.80
2019-04-10T05:21:13.452Z,32.27
2019-04-10T05:23:40.743Z,29.53
2019-04-10T05:26:08.205Z,30.27
2019-04-10T05:28:36.198Z,35.20
2019-04-10T05:31:03.698Z,36.20
2019-04-10T05:33:31.088Z,34.47
2019-04-10T05:35:59.217Z,30.37
2019-04-10T05:38:27.059Z,29.97
2019-04-10T05:40:55.219Z,31.50
2019-04-10T05:43:22.607Z,30.87
2019-04-10T05:45:50.689Z,34.90
2019-04-10T05:48:20.980Z,34.67
2019-04-10T05:50:54.065Z,38.07
2019-04-10T05:53:16.293Z,39.10
2019-04-10T05:55:43.662Z,36.57
2019-04-10T05:58:10.939Z,40.87
2019-04-10T06:00:38.208Z,48.60
2019-04-10T06:03:06.209Z,42.27
2019-04-10T06:05:34.177Z,42.10
2019-04-10T06:08:01.620Z,39.20
2019-04-10T06:10:30.057Z,38.93
2019-04-10T06:12:58.404Z,39.13
2019-04-10T06:15:26.583Z,39.57
2019-04-10T06:17:54.497Z,34.93
2019-04-10T06:20:22.917Z,36.90
2019-04-10T06:22:50.740Z,36.90
2019-04-10T06:25:19.617Z,36.20
2019-04-10T06:27:47.077Z,44.13
2019-04-10T06:30:15.410Z,35.47
2019-04-10T06:32:43.208Z,36.93
2019-04-10T06:35:11.308Z,38.97
2019-04-10T06:37:39.843Z,37.70
2019-04-10T06:40:14.305Z,37.10
2019-04-10T06:42:46.450Z,35.57
2019-04-10T06:45:05.827Z,37.30
2019-04-10T06:47:34.020Z,37.53
2019-04-10T06:50:02.533Z,38.57
2019-04-10T06:52:30.393Z,40.57
2019-04-10T06:54:57.793Z,38.57
2019-04-10T06:57:25.068Z,37.13
2019-04-10T06:59:52.439Z,41.83
2019-04-10T07:02:27.400Z,52.73
2019-04-10T07:04:54.242Z,39.80
2019-04-10T07:07:20.326Z,39.17
2019-04-10T07:09:47.455Z,39.07
2019-04-10T07:12:14.826Z,36.70
2019-04-10T07:14:46.818Z,40.90
2019-04-10T07:17:13.942Z,35.80
2019-04-10T07:19:43.647Z,40.77
2019-04-10T07:22:12.442Z,41.07
2019-04-10T07:24:41.212Z,36.70
2019-04-10T07:27:07.838Z,41.20
2019-04-10T07:29:36.247Z,37.77
2019-04-10T07:32:07.845Z,35.90
2019-04-10T07:34:32.804Z,43.47
2019-04-10T07:37:00.238Z,35.80
2019-04-10T07:39:30.389Z,37.53
2019-04-10T07:41:57.737Z,39.77
2019-04-10T07:44:25.252Z,45.90
2019-04-10T07:46:52.942Z,46.23
2019-04-10T07:49:21.186Z,44.57
2019-04-10T07:51:49.416Z,44.70
2019-04-10T07:54:20.838Z,45.37
2019-04-10T07:56:45.824Z,44.93
2019-04-10T07:59:13.186Z,48.47
2019-04-10T08:01:40.969Z,44.73
2019-04-10T08:04:10.345Z,43.50
2019-04-10T08:06:37.834Z,42.40
2019-04-10T08:09:06.474Z,40.10
2019-04-10T08:11:33.829Z,39.00
2019-04-10T08:14:01.262Z,40.67
2019-04-10T08:16:29.088Z,39.40
2019-04-10T08:18:56.369Z,44.40
2019-04-10T08:21:23.953Z,42.33
2019-04-10T08:23:51.593Z,40.07
2019-04-10T08:26:21.288Z,42.30
2019-04-10T08:28:49.650Z,38.60
2019-04-10T08:31:17.109Z,42.43
2019-04-10T08:33:44.413Z,37.60
2019-04-10T08:36:11.703Z,45.93
2019-04-10T08:38:40.055Z,37.40
2019-04-10T08:41:08.588Z,41.77
2019-04-10T08:43:36.005Z,39.60
2019-04-10T08:46:03.523Z,40.67
2019-04-10T08:48:31.995Z,40.40
2019-04-10T08:51:00.956Z,45.60
2019-04-10T08:53:28.703Z,44.60
2019-04-10T08:55:56.784Z,45.13
2019-04-10T08:58:25.232Z,39.47
2019-04-10T09:00:54.123Z,39.47
2019-04-10T09:03:22.481Z,43.50
2019-04-10T09:05:51.032Z,45.60
2019-04-10T09:08:19.009Z,34.47
2019-04-10T09:10:46.933Z,36.40
2019-04-10T09:13:14.604Z,38.87
2019-04-10T09:15:42.368Z,37.10
2019-04-10T09:18:11.257Z,44.70
2019-04-10T09:20:38.825Z,45.80
2019-04-10T09:23:23.539Z,47.60
2019-04-10T09:25:35.449Z,46.23
2019-04-10T09:28:02.786Z,43.00
2019-04-10T09:30:31.007Z,42.97
2019-04-10T09:32:59.178Z,46.40
2019-04-10T09:35:28.661Z,47.40
2019-04-10T09:37:56.607Z,46.90
2019-04-10T09:40:24.493Z,42.80
2019-04-10T09:42:52.149Z,40.07
2019-04-10T09:45:19.993Z,37.57
2019-04-10T09:47:48.083Z,39.43
2019-04-10T09:50:15.429Z,40.07
2019-04-10T09:52:43.930Z,38.03
2019-04-10T09:55:11.772Z,41.60
2019-04-10T09:57:39.322Z,45.37
2019-04-10T10:00:07.834Z,38.63
2019-04-10T10:02:35.767Z,38.07
2019-04-10T10:05:04.309Z,41.97
2019-04-10T10:07:32.550Z,47.03
2019-04-10T10:10:01.309Z,41.10
2019-04-10T10:12:29.017Z,38.83
2019-04-10T10:14:56.357Z,39.37
2019-04-10T10:17:24.391Z,42.07
2019-04-10T10:19:53.775Z,41.50
2019-04-10T10:22:21.260Z,42.90
2019-04-10T10:24:48.963Z,40.47
2019-04-10T10:27:16.227Z,48.17
2019-04-10T10:29:44.118Z,45.57
2019-04-10T10:32:12.694Z,43.47
2019-04-10T10:34:40.817Z,46.77
2019-04-10T10:37:08.795Z,51.60
2019-04-10T10:39:37.085Z,48.07
2019-04-10T10:42:05.475Z,49.47
2019-04-10T10:44:34.101Z,48.63
2019-04-10T10:47:02.095Z,47.40
2019-04-10T10:49:30.570Z,46.27
2019-04-10T10:51:58.029Z,39.53
2019-04-10T10:54:26.833Z,38.47
2019-04-10T10:56:54.990Z,40.20
2019-04-10T10:59:22.489Z,43.90
2019-04-10T11:01:49.776Z,43.07
2019-04-10T11:04:17.118Z,48.03
2019-04-10T11:06:55.213Z,42.17
2019-04-10T11:09:15.796Z,46.77
2019-04-10T11:11:43.209Z,42.90
2019-04-10T11:14:10.956Z,41.67
2019-04-10T11:16:39.086Z,39.63
2019-04-10T11:19:06.801Z,40.83
2019-04-10T11:21:34.605Z,45.90
2019-04-10T11:24:03.056Z,45.67
2019-04-10T11:26:30.591Z,43.03
2019-04-10T11:28:58.087Z,43.93
2019-04-10T11:31:25.481Z,46.10
2019-04-10T11:33:55.643Z,44.33
2019-04-10T11:36:21.955Z,42.60
2019-04-10T11:38:49.379Z,46.97
2019-04-10T11:41:18.900Z,42.97
2019-04-10T11:43:46.622Z,43.73
2019-04-10T11:46:14.816Z,42.40
2019-04-10T11:48:45.499Z,44.73
2019-04-10T11:51:13.303Z,44.23
2019-04-10T11:53:44.118Z,41.97
2019-04-10T11:56:18.896Z,45.03
2019-04-10T11:58:51.224Z,48.70
2019-04-10T12:01:14.244Z,47.57
2019-04-10T12:03:48.259Z,45.57
2019-04-10T12:06:11.913Z,46.03
2019-04-10T12:11:13.865Z,44.30
2019-04-10T12:13:38.711Z,44.27
2019-04-10T12:16:07.072Z,38.67
2019-04-10T12:18:35.089Z,44.33
2019-04-10T12:21:02.583Z,38.33
2019-04-10T12:23:29.946Z,39.83
2019-04-10T12:25:57.260Z,41.87
2019-04-10T12:28:36.473Z,42.20
2019-04-10T12:31:03.898Z,40.00
2019-04-10T12:33:31.706Z,36.27
2019-04-10T12:36:00.310Z,39.80
2019-04-10T12:38:27.972Z,36.63
2019-04-10T12:40:55.448Z,39.57
2019-04-10T12:43:23.151Z,37.00
2019-04-10T12:45:50.766Z,36.70
2019-04-10T12:48:18.769Z,37.43
2019-04-10T12:50:47.451Z,40.60
2019-04-10T12:53:23.301Z,36.97
2019-04-10T12:55:51.423Z,38.77
2019-04-10T12:58:19.347Z,39.13
2019-04-10T13:00:48.144Z,39.00
2019-04-10T13:03:16.662Z,39.87
2019-04-10T13:05:45.139Z,39.10
2019-04-10T13:08:21.328Z,40.50
2019-04-10T13:10:43.557Z,44.30
2019-04-10T13:13:11.567Z,43.30
2019-04-10T13:15:39.346Z,42.90
2019-04-10T13:18:07.901Z,41.80
2019-04-10T13:20:35.399Z,44.00
2019-04-10T13:23:02.807Z,41.83
2019-04-10T13:25:30.222Z,46.80
2019-04-10T13:27:57.552Z,47.43
2019-04-10T13:30:25.068Z,44.77
2019-04-10T13:32:52.430Z,47.37
2019-04-10T13:35:19.942Z,44.10
2019-04-10T13:37:47.627Z,41.80
2019-04-10T13:40:15.278Z,48.93
2019-04-10T13:42:42.603Z,46.93
2019-04-10T13:45:11.053Z,54.67
2019-04-10T13:47:38.646Z,47.50
2019-04-10T13:50:07.196Z,48.63
2019-04-10T13:52:36.339Z,47.77
2019-04-10T13:55:05.505Z,53.63
2019-04-10T13:57:32.889Z,55.53
2019-04-10T14:00:00.281Z,54.60
2019-04-10T14:02:32.235Z,48.67
2019-04-10T14:04:59.980Z,50.37
2019-04-10T14:07:28.450Z,52.23
2019-04-10T14:09:56.581Z,47.87
2019-04-10T14:12:24.947Z,51.83
2019-04-10T14:14:53.092Z,50.27
2019-04-10T14:17:21.539Z,52.40
2019-04-10T14:19:49.795Z,53.30
2019-04-10T14:22:17.721Z,47.07
2019-04-10T14:24:47.735Z,47.60
2019-04-10T14:27:16.153Z,48.07
2019-04-10T14:29:44.793Z,46.07
2019-04-10T14:32:13.897Z,44.83
2019-04-10T14:34:41.184Z,41.23
2019-04-10T14:37:11.416Z,45.57
2019-04-10T14:39:39.612Z,44.90
2019-04-10T14:42:08.667Z,45.07
2019-04-10T14:44:36.795Z,47.87
2019-04-10T14:47:04.491Z,48.97
2019-04-10T14:49:31.823Z,47.13
2019-04-10T14:51:59.116Z,47.00
2019-04-10T14:54:26.589Z,44.63
2019-04-10T14:56:54.585Z,45.27
2019-04-10T14:59:22.123Z,46.90
2019-04-10T15:01:51.194Z,48.17
2019-04-10T15:04:19.311Z,44.70
2019-04-10T15:06:47.866Z,46.03
2019-04-10T15:09:22.207Z,46.10
2019-04-10T15:11:46.819Z,44.50
2019-04-10T15:14:15.215Z,50.20
2019-04-10T15:16:52.994Z,48.10
2019-04-10T15:19:12.146Z,43.63
2019-04-10T15:21:39.468Z,44.40
2019-04-10T15:24:06.989Z,45.20
2019-04-10T15:26:34.392Z,43.47
2019-04-10T15:29:01.756Z,41.23
2019-04-10T15:31:29.128Z,42.00
2019-04-10T15:33:56.499Z,42.17
2019-04-10T15:36:25.003Z,43.63
2019-04-10T15:38:52.767Z,41.87
2019-04-10T15:41:21.034Z,48.27
2019-04-10T15:43:49.716Z,41.07
2019-04-10T15:46:17.236Z,40.80
2019-04-10T15:48:44.620Z,45.30
2019-04-10T15:51:12.027Z,44.57
2019-04-10T15:53:39.458Z,42.47
2019-04-10T15:56:07.718Z,42.97
2019-04-10T15:58:35.406Z,43.60
2019-04-10T16:01:05.553Z,41.00
2019-04-10T16:03:33.007Z,32.80
2019-04-10T16:06:00.309Z,33.03
2019-04-10T16:08:28.438Z,33.93
2019-04-10T16:10:57.370Z,34.17
2019-04-10T16:13:26.480Z,30.37
2019-04-10T16:15:54.701Z,30.00
2019-04-10T16:18:26.707Z,25.83
2019-04-10T16:20:55.618Z,31.77
2019-04-10T16:23:33.624Z,30.47
2019-04-10T16:26:01.092Z,26.93
2019-04-10T16:28:29.297Z,26.40
2019-04-10T16:30:57.193Z,25.10
2019-04-10T16:33:25.430Z,23.87
2019-04-10T16:35:52.993Z,23.37
2019-04-10T16:38:20.566Z,22.73
2019-04-10T16:40:48.076Z,23.80
2019-04-10T16:43:15.984Z,24.60
2019-04-10T16:45:43.566Z,23.67
2019-04-10T16:48:10.991Z,20.43
2019-04-10T16:50:39.341Z,20.43
2019-04-10T16:53:06.742Z,19.83
2019-04-10T16:55:34.623Z,20.20
2019-04-10T16:58:03.136Z,19.23
2019-04-10T17:00:31.227Z,18.53
2019-04-10T17:02:59.392Z,20.90
2019-04-10T17:05:26.833Z,19.10
2019-04-10T17:07:55.316Z,21.37
2019-04-10T17:10:26.383Z,18.57
2019-04-10T17:12:53.966Z,19.40
2019-04-10T17:15:21.313Z,20.97
2019-04-10T17:17:48.627Z,19.70
2019-04-10T17:20:16.050Z,21.10
2019-04-10T17:22:46.051Z,19.20
2019-04-10T17:25:13.765Z,22.03
2019-04-10T17:27:41.237Z,21.20
2019-04-10T17:30:09.541Z,20.47
2019-04-10T17:32:38.185Z,22.13
2019-04-10T17:35:07.785Z,21.27
2019-04-10T17:37:35.944Z,20.33
2019-04-10T17:40:06.169Z,20.93
2019-04-10T17:42:34.532Z,22.10
2019-04-10T17:45:02.923Z,19.93
2019-04-10T17:47:33.399Z,20.57
2019-04-10T17:50:00.795Z,19.27
2019-04-10T17:52:29.264Z,21.53
2019-04-10T17:54:56.779Z,19.43
2019-04-10T17:57:36.316Z,16.63
2019-04-10T17:59:54.861Z,18.23
2019-04-10T18:02:23.397Z,17.30
2019-04-10T18:04:50.991Z,17.30
2019-04-10T18:07:18.417Z,14.93
2019-04-10T18:09:46.451Z,15.50
2019-04-10T18:12:14.242Z,15.07
2019-04-10T18:14:42.632Z,15.17
2019-04-10T18:17:11.019Z,15.20
2019-04-10T18:19:38.630Z,15.17
2019-04-10T18:22:06.773Z,13.50
2019-04-10T18:24:34.257Z,15.00
2019-04-10T18:27:01.566Z,13.23
2019-04-10T18:29:28.959Z,13.70
2019-04-10T18:31:57.948Z,13.70
2019-04-10T18:34:25.536Z,12.13
2019-04-10T18:36:55.012Z,12.77
2019-04-10T18:39:22.405Z,12.73
2019-04-10T18:41:49.790Z,13.83
2019-04-10T18:44:17.138Z,12.47
2019-04-10T18:46:44.504Z,13.13
2019-04-10T18:49:11.817Z,12.93
2019-04-10T18:51:40.308Z,13.57
2019-04-10T18:54:09.713Z,13.47
2019-04-10T18:56:37.605Z,13.70
2019-04-10T18:59:18.808Z,15.13
2019-04-10T19:01:51.307Z,14.37
2019-04-10T19:04:20.474Z,14.20
2019-04-10T19:06:56.544Z,14.23
2019-04-10T19:09:28.181Z,14.47
2019-04-10T19:11:54.783Z,13.90
2019-04-10T19:14:24.670Z,15.27
2019-04-10T19:16:52.876Z,15.90
2019-04-10T19:19:20.521Z,14.20
2019-04-10T19:21:48.465Z,15.60
2019-04-10T19:24:16.017Z,17.83
2019-04-10T19:26:46.106Z,15.10
2019-04-10T19:29:15.004Z,15.53
2019-04-10T19:31:44.025Z,14.90
2019-04-10T19:34:13.075Z,15.83
2019-04-10T19:36:41.632Z,15.73
2019-04-10T19:39:10.719Z,16.30
2019-04-10T19:41:41.159Z,16.17
2019-04-10T19:44:07.437Z,17.17
2019-04-10T19:46:35.584Z,16.17
2019-04-10T19:49:03.887Z,15.47
2019-04-10T19:51:32.212Z,15.07
2019-04-10T19:54:00.057Z,16.70
2019-04-10T19:56:28.686Z,16.07
2019-04-10T19:58:56.503Z,16.70
2019-04-10T20:01:26.775Z,16.00
2019-04-10T20:03:52.924Z,16.53
2019-04-10T20:06:22.321Z,16.53
2019-04-10T20:08:50.233Z,17.33
2019-04-10T20:11:17.613Z,14.83
2019-04-10T20:13:45.039Z,16.13
2019-04-10T20:16:13.138Z,15.77
2019-04-10T20:18:41.175Z,15.47
2019-04-10T20:21:09.937Z,18.10
2019-04-10T20:23:38.295Z,16.13
2019-04-10T20:26:05.653Z,16.17
2019-04-10T20:28:34.497Z,16.53
2019-04-10T20:31:01.768Z,18.27
2019-04-10T20:33:29.064Z,16.97
2019-04-10T20:35:56.465Z,18.33
2019-04-10T20:38:23.844Z,17.53
2019-04-10T20:40:51.955Z,17.87
2019-04-10T20:43:21.085Z,20.40
2019-04-10T20:45:49.593Z,18.57
2019-04-10T20:48:17.139Z,17.17
2019-04-10T20:50:44.616Z,17.67
2019-04-10T20:53:11.970Z,17.13
2019-04-10T20:55:39.255Z,18.47
2019-04-10T20:58:06.673Z,18.33
2019-04-10T21:00:39.019Z,18.30
2019-04-10T21:03:07.086Z,15.63
2019-04-10T21:05:35.797Z,16.40
2019-04-10T21:08:04.189Z,17.07
2019-04-10T21:10:31.604Z,17.80
2019-04-10T21:13:01.127Z,19.23
2019-04-10T21:15:28.562Z,18.17
2019-04-10T21:17:56.960Z,19.20
2019-04-10T21:20:27.159Z,16.43
2019-04-10T21:22:55.597Z,17.93
2019-04-10T21:25:23.248Z,18.77
2019-04-10T21:27:52.085Z,18.47
2019-04-10T21:30:22.079Z,18.17
2019-04-10T21:32:55.417Z,18.33
2019-04-10T21:35:25.067Z,17.60
2019-04-10T21:37:52.852Z,17.43
2019-04-10T21:40:20.720Z,17.93
2019-04-10T21:42:48.080Z,19.23
2019-04-10T21:45:15.924Z,19.30
2019-04-10T21:47:44.018Z,21.33
2019-04-10T21:50:11.556Z,20.87
2019-04-10T21:52:39.308Z,22.27
2019-04-10T21:55:06.913Z,22.63
2019-04-10T21:57:34.205Z,21.67
2019-04-10T22:00:01.690Z,21.77
2019-04-10T22:02:29.500Z,22.50
2019-04-10T22:04:57.477Z,22.93
2019-04-10T22:07:32.798Z,20.60
2019-04-10T22:10:13.792Z,21.70
2019-04-10T22:12:46.946Z,20.10
2019-04-10T22:15:12.763Z,21.27
2019-04-10T22:17:40.518Z,20.83
2019-04-10T22:20:07.900Z,18.50
2019-04-10T22:22:35.201Z,19.27
2019-04-10T22:25:03.390Z,18.50
2019-04-10T22:27:31.681Z,20.00
2019-04-10T22:29:59.112Z,19.30
2019-04-10T22:32:26.929Z,21.47
2019-04-10T22:34:54.936Z,25.43
2019-04-10T22:37:22.247Z,22.13
2019-04-10T22:39:50.500Z,21.73
2019-04-10T22:42:19.018Z,20.57
2019-04-10T22:44:47.200Z,23.00
2019-04-10T22:47:16.846Z,25.50
2019-04-10T22:49:45.092Z,21.23
2019-04-10T22:52:12.574Z,21.40
2019-04-10T22:54:40.077Z,21.57
2019-04-10T22:57:07.395Z,21.87
2019-04-10T22:59:34.893Z,21.90
2019-04-10T23:02:10.554Z,19.77
2019-04-10T23:04:31.456Z,20.40
2019-04-10T23:06:59.823Z,19.43
2019-04-10T23:09:28.467Z,21.77
2019-04-10T23:11:56.118Z,20.10
2019-04-10T23:14:23.419Z,21.50
2019-04-10T23:16:50.699Z,21.57
2019-04-10T23:19:18.252Z,21.57
2019-04-10T23:21:45.653Z,24.77
2019-04-10T23:24:13.656Z,29.10
2019-04-10T23:26:41.635Z,27.13
2019-04-10T23:29:09.063Z,26.83
2019-04-10T23:31:37.375Z,27.90
2019-04-10T23:34:04.925Z,28.90
2019-04-10T23:36:32.205Z,33.03
2019-04-10T23:38:59.731Z,33.27
2019-04-10T23:41:27.153Z,35.67
2019-04-10T23:43:55.697Z,34.97
2019-04-10T23:46:23.195Z,33.87
2019-04-10T23:48:50.533Z,32.20
2019-04-10T23:51:18.909Z,33.60
2019-04-10T23:53:46.934Z,34.00
2019-04-10T23:56:15.535Z,34.10
2019-04-10T23:58:42.980Z,36.53
